Abis Cuxhaven — PBYB — position and weather

sailwx.info

Track history (hours):
 
Tides and Currents Weather Stations Pressure Air Temp Water Temp Dewpoint Dewpoint Depression Visibility Wind Speed Wind Dir Waves Ship Positions

Abis Cuxhaven

Last reported at 2016-Jun-27 18:12 UTC. Time now 2016-Jul-01 00:57 UTC.
Position N 36°34' W 008°38'.

Length 114 m; draft 6.2 m.

Type: Cargo ship. MMSI: 246670000.

Date/timePositionNaut miles runAvg speedWind from/ knotsBaromVisibWave heightAir tempDewpointWater temp
2016-Jun-27 18:12N 36°34' W 008°38'45 9.5
2016-Jun-27 13:32N 36°47' W 009°31'1010.3
2016-Jun-27 12:33N 36°56' W 009°35'1010.5
2016-Jun-27 11:33N 37°06' W 009°37'1110.5
2016-Jun-27 10:32N 37°17' W 009°40'1110.8
2016-Jun-27 09:30N 37°28' W 009°43'1010.9
2016-Jun-27 08:33N 37°38' W 009°46'1110.7
2016-Jun-27 07:30N 37°49' W 009°50'1212.3
2016-Jun-27 06:33N 38°00' W 009°53'1210.8
2016-Jun-27 05:25N 38°12' W 009°57'1011.0
2016-Jun-27 04:32N 38°22' W 009°59'1111.0
2016-Jun-27 03:33N 38°32' W 010°02'1110.7
2016-Jun-27 02:33N 38°43' W 010°05'1210.5
2016-Jun-27 01:22N 38°55' W 010°05'2111.2
2016-Jun-26 23:31N 39°16' W 010°05'1010.6
2016-Jun-26 22:33N 39°26' W 010°05'  
2016-Jun-24 03:33N 49°44' W 003°31'1212.2
2016-Jun-24 02:33N 49°50' W 003°15'1212.0
2016-Jun-24 01:33N 49°56' W 002°59'1111.0
2016-Jun-24 00:33N 49°59' W 002°43'9410.1
2016-Jun-23 15:15N 50°27' W 000°22'912.1
2016-Jun-23 14:32N 50°30' W 000°09'1111.3
2016-Jun-23 13:34N 50°33' E 000°08'1110.1
2016-Jun-23 12:31N 50°37' E 000°24'9 9.3
2016-Jun-23 11:33N 50°40' E 000°37'2510.5
2016-Jun-23 09:09N 50°55' E 001°08'712.5
2016-Jun-23 08:33N 50°60' E 001°18'1313.0
2016-Jun-23 07:34N 51°08' E 001°34'2110.7
2016-Jun-23 05:33N 51°24' E 001°55'9 9.2
2016-Jun-23 04:34N 51°31' E 002°05'9 8.7
2016-Jun-23 03:33N 51°38' E 002°14'9 8.5
2016-Jun-23 02:32N 51°44' E 002°24'51 9.7
2016-Jun-22 21:20N 52°03' E 003°40'810.6
2016-Jun-22 20:33N 52°02' E 003°54'1413.6
2016-Jun-22 19:33N 51°56' E 004°13'6 5.4
2016-Jun-22 18:32N 51°54' E 004°22'0 0.0
2016-Jun-22 17:32N 51°54' E 004°22'0 0.0
2016-Jun-22 16:32N 51°54' E 004°22'0 0.0
2016-Jun-22 15:32N 51°54' E 004°22'0 0.0
2016-Jun-22 14:32N 51°54' E 004°22'0 0.0
2016-Jun-22 13:29N 51°54' E 004°22'0 0.2
2016-Jun-22 12:32N 51°54' E 004°22'0 0.0
2016-Jun-22 11:32N 51°54' E 004°22'0 0.0
2016-Jun-22 10:32N 51°54' E 004°22'0 0.0
2016-Jun-22 09:32N 51°54' E 004°22'0 0.0
2016-Jun-22 08:32N 51°54' E 004°22'0 0.0
2016-Jun-22 07:32N 51°54' E 004°22'0 0.0
2016-Jun-22 06:32N 51°54' E 004°22'0 0.0
2016-Jun-22 05:32N 51°54' E 004°22'0 0.0
2016-Jun-22 04:32N 51°54' E 004°22'0 0.0
2016-Jun-22 03:32N 51°54' E 004°22'0 0.0
2016-Jun-22 02:32N 51°54' E 004°22'0 0.0
2016-Jun-22 01:29N 51°54' E 004°22'0 0.0
2016-Jun-22 00:32N 51°54' E 004°22'0 0.0
2016-Jun-21 23:32N 51°54' E 004°22'0 0.0
2016-Jun-21 22:32N 51°54' E 004°22'0 0.0
2016-Jun-21 21:32N 51°54' E 004°22'0 0.0
2016-Jun-21 20:32N 51°54' E 004°22'0 0.0
2016-Jun-21 19:32N 51°54' E 004°22'0 0.0
2016-Jun-21 18:32N 51°54' E 004°22'0 0.0
2016-Jun-21 17:32N 51°54' E 004°22'0 0.0
2016-Jun-21 16:32N 51°54' E 004°22'0 0.0
2016-Jun-21 15:32N 51°54' E 004°22'2 2.0
2016-Jun-21 14:33N 51°54' E 004°19'1312.9
2016-Jun-21 13:33N 51°60' E 004°01'9 9.1
2016-Jun-21 12:33N 51°56' E 003°47'1 0.5
2016-Jun-21 11:28N 51°55' E 003°47'0 0.0
2016-Jun-21 10:31N 51°55' E 003°47'0 0.0
2016-Jun-21 09:31N 51°55' E 003°47'0 0.1
2016-Jun-21 08:31N 51°55' E 003°47'0 0.1
2016-Jun-21 07:31N 51°55' E 003°47'0 0.0
2016-Jun-21 04:28N 51°56' E 003°47'0 0.0
2016-Jun-21 03:31N 51°56' E 003°47'0 0.0
2016-Jun-21 02:22N 51°56' E 003°47'0 0.0
2016-Jun-21 01:31N 51°56' E 003°47'0 0.0
2016-Jun-21 00:31N 51°55' E 003°47'0 0.0
2016-Jun-20 23:31N 51°55' E 003°47'0 0.1
2016-Jun-20 22:31N 51°55' E 003°47'0 0.0
2016-Jun-20 21:31N 51°55' E 003°47'6 6.3
2016-Jun-20 20:33N 51°56' E 003°37'5112.0
2016-Jun-20 16:19N 51°34' E 002°23'1012.5
2016-Jun-20 15:33N 51°26' E 002°14'1212.3
2016-Jun-20 14:33N 51°15' E 002°05'1212.1
2016-Jun-20 13:33N 51°08' E 001°50'1312.9
2016-Jun-20 12:33N 50°58' E 001°36'1313.3
2016-Jun-20 11:33N 50°47' E 001°25'5811.6
2016-Jun-20 06:32N 50°18' E 000°06'1211.0
2016-Jun-20 05:28N 50°15' W 000°12'11 9.2
2016-Jun-20 04:14N 50°12' W 000°29'95 9.6
2016-Jun-19 18:22N 49°47' W 002°51'1211.5
2016-Jun-19 17:19N 49°40' W 003°06'7510.6
2016-Jun-19 10:16N 48°55' W 004°39'7 9.2
2016-Jun-19 09:33N 48°51' W 004°47'9 8.8
2016-Jun-19 08:33N 48°46' W 004°57'9 9.1
2016-Jun-19 07:33N 48°41' W 005°08'1111.2
2016-Jun-19 06:33N 48°33' W 005°20'9 9.1
2016-Jun-19 05:33N 48°24' W 005°21'15 9.8
2016-Jun-19 04:04N 48°10' W 005°16'610.2
2016-Jun-19 03:32N 48°04' W 005°14'1010.6
2016-Jun-19 02:33N 47°54' W 005°10'1010.3
2016-Jun-19 01:34N 47°45' W 005°04'21 9.9
2016-Jun-18 23:29N 47°26' W 004°51'10 9.9
2016-Jun-18 22:32N 47°18' W 004°45'3010.0
2016-Jun-18 19:29N 46°51' W 004°25'  
Track history (hours):
 
Tides and Currents Weather Stations Pressure Air Temp Water Temp Dewpoint Dewpoint Depression Visibility Wind Speed Wind Dir Waves Ship Positions

Abis Cuxhaven

Last reported at 2016-Jun-27 18:12 UTC. Time now 2016-Jul-01 00:57 UTC.
Position N 36°34' W 008°38'.

Length 114 m; draft 6.2 m.

Type: Cargo ship. MMSI: 246670000.

Date/timePositionNaut miles runAvg speedWind from/ knotsBaromVisibWave heightAir tempDewpointWater temp
2016-Jun-27 18:12N 36°34' W 008°38'45 9.5
2016-Jun-27 13:32N 36°47' W 009°31'1010.3
2016-Jun-27 12:33N 36°56' W 009°35'1010.5
2016-Jun-27 11:33N 37°06' W 009°37'1110.5
2016-Jun-27 10:32N 37°17' W 009°40'1110.8
2016-Jun-27 09:30N 37°28' W 009°43'1010.9
2016-Jun-27 08:33N 37°38' W 009°46'1110.7
2016-Jun-27 07:30N 37°49' W 009°50'1212.3
2016-Jun-27 06:33N 38°00' W 009°53'1210.8
2016-Jun-27 05:25N 38°12' W 009°57'1011.0
2016-Jun-27 04:32N 38°22' W 009°59'1111.0
2016-Jun-27 03:33N 38°32' W 010°02'1110.7
2016-Jun-27 02:33N 38°43' W 010°05'1210.5
2016-Jun-27 01:22N 38°55' W 010°05'2111.2
2016-Jun-26 23:31N 39°16' W 010°05'1010.6
2016-Jun-26 22:33N 39°26' W 010°05'  
2016-Jun-24 03:33N 49°44' W 003°31'1212.2
2016-Jun-24 02:33N 49°50' W 003°15'1212.0
2016-Jun-24 01:33N 49°56' W 002°59'1111.0
2016-Jun-24 00:33N 49°59' W 002°43'9410.1
2016-Jun-23 15:15N 50°27' W 000°22'912.1
2016-Jun-23 14:32N 50°30' W 000°09'1111.3
2016-Jun-23 13:34N 50°33' E 000°08'1110.1
2016-Jun-23 12:31N 50°37' E 000°24'9 9.3
2016-Jun-23 11:33N 50°40' E 000°37'2510.5
2016-Jun-23 09:09N 50°55' E 001°08'712.5
2016-Jun-23 08:33N 50°60' E 001°18'1313.0
2016-Jun-23 07:34N 51°08' E 001°34'2110.7
2016-Jun-23 05:33N 51°24' E 001°55'9 9.2
2016-Jun-23 04:34N 51°31' E 002°05'9 8.7
2016-Jun-23 03:33N 51°38' E 002°14'9 8.5
2016-Jun-23 02:32N 51°44' E 002°24'51 9.7
2016-Jun-22 21:20N 52°03' E 003°40'810.6
2016-Jun-22 20:33N 52°02' E 003°54'1413.6
2016-Jun-22 19:33N 51°56' E 004°13'6 5.4
2016-Jun-22 18:32N 51°54' E 004°22'0 0.0
2016-Jun-22 17:32N 51°54' E 004°22'0 0.0
2016-Jun-22 16:32N 51°54' E 004°22'0 0.0
2016-Jun-22 15:32N 51°54' E 004°22'0 0.0
2016-Jun-22 14:32N 51°54' E 004°22'0 0.0
2016-Jun-22 13:29N 51°54' E 004°22'0 0.2
2016-Jun-22 12:32N 51°54' E 004°22'0 0.0
2016-Jun-22 11:32N 51°54' E 004°22'0 0.0
2016-Jun-22 10:32N 51°54' E 004°22'0 0.0
2016-Jun-22 09:32N 51°54' E 004°22'0 0.0
2016-Jun-22 08:32N 51°54' E 004°22'0 0.0
2016-Jun-22 07:32N 51°54' E 004°22'0 0.0
2016-Jun-22 06:32N 51°54' E 004°22'0 0.0
2016-Jun-22 05:32N 51°54' E 004°22'0 0.0
2016-Jun-22 04:32N 51°54' E 004°22'0 0.0
2016-Jun-22 03:32N 51°54' E 004°22'0 0.0
2016-Jun-22 02:32N 51°54' E 004°22'0 0.0
2016-Jun-22 01:29N 51°54' E 004°22'0 0.0
2016-Jun-22 00:32N 51°54' E 004°22'0 0.0
2016-Jun-21 23:32N 51°54' E 004°22'0 0.0
2016-Jun-21 22:32N 51°54' E 004°22'0 0.0
2016-Jun-21 21:32N 51°54' E 004°22'0 0.0
2016-Jun-21 20:32N 51°54' E 004°22'0 0.0
2016-Jun-21 19:32N 51°54' E 004°22'0 0.0
2016-Jun-21 18:32N 51°54' E 004°22'0 0.0
2016-Jun-21 17:32N 51°54' E 004°22'0 0.0
2016-Jun-21 16:32N 51°54' E 004°22'0 0.0
2016-Jun-21 15:32N 51°54' E 004°22'2 2.0
2016-Jun-21 14:33N 51°54' E 004°19'1312.9
2016-Jun-21 13:33N 51°60' E 004°01'9 9.1
2016-Jun-21 12:33N 51°56' E 003°47'1 0.5
2016-Jun-21 11:28N 51°55' E 003°47'0 0.0
2016-Jun-21 10:31N 51°55' E 003°47'0 0.0
2016-Jun-21 09:31N 51°55' E 003°47'0 0.1
2016-Jun-21 08:31N 51°55' E 003°47'0 0.1
2016-Jun-21 07:31N 51°55' E 003°47'0 0.0
2016-Jun-21 04:28N 51°56' E 003°47'0 0.0
2016-Jun-21 03:31N 51°56' E 003°47'0 0.0
2016-Jun-21 02:22N 51°56' E 003°47'0 0.0
2016-Jun-21 01:31N 51°56' E 003°47'0 0.0
2016-Jun-21 00:31N 51°55' E 003°47'0 0.0
2016-Jun-20 23:31N 51°55' E 003°47'0 0.1
2016-Jun-20 22:31N 51°55' E 003°47'0 0.0
2016-Jun-20 21:31N 51°55' E 003°47'6 6.3
2016-Jun-20 20:33N 51°56' E 003°37'5112.0
2016-Jun-20 16:19N 51°34' E 002°23'1012.5
2016-Jun-20 15:33N 51°26' E 002°14'1212.3
2016-Jun-20 14:33N 51°15' E 002°05'1212.1
2016-Jun-20 13:33N 51°08' E 001°50'1312.9
2016-Jun-20 12:33N 50°58' E 001°36'1313.3
2016-Jun-20 11:33N 50°47' E 001°25'5811.6
2016-Jun-20 06:32N 50°18' E 000°06'1211.0
2016-Jun-20 05:28N 50°15' W 000°12'11 9.2
2016-Jun-20 04:14N 50°12' W 000°29'95 9.6
2016-Jun-19 18:22N 49°47' W 002°51'1211.5
2016-Jun-19 17:19N 49°40' W 003°06'7510.6
2016-Jun-19 10:16N 48°55' W 004°39'7 9.2
2016-Jun-19 09:33N 48°51' W 004°47'9 8.8
2016-Jun-19 08:33N 48°46' W 004°57'9 9.1
2016-Jun-19 07:33N 48°41' W 005°08'1111.2
2016-Jun-19 06:33N 48°33' W 005°20'9 9.1
2016-Jun-19 05:33N 48°24' W 005°21'15 9.8
2016-Jun-19 04:04N 48°10' W 005°16'610.2
2016-Jun-19 03:32N 48°04' W 005°14'1010.6
2016-Jun-19 02:33N 47°54' W 005°10'1010.3
2016-Jun-19 01:34N 47°45' W 005°04'21 9.9
2016-Jun-18 23:29N 47°26' W 004°51'10 9.9
2016-Jun-18 22:32N 47°18' W 004°45'3010.0
2016-Jun-18 19:29N 46°51' W 004°25'  

Dump ship's entire track history